ENSB Airport Information

Runway Information
Runway 10 Length 7608 ft width 148 ft
Elevation 63 ft Threshold 199 ft Heading 105
Runway 28 Length 7608 ft Width 148 ft
Elevation 73 ft Threshold 395 ft Heading 285
Airport Frequencies
Type AFIS Name INFO Frequency 118.1 MHZ
Type AFIS Name INFO Frequency 884 MHZ
Airport Navaids
Airport Weather Information & NOTAM
Deprecated: The each() function is deprecated. This message will be suppressed on further calls in /storage/content/79/1005879/virtualnac.org/public_html/v2/lib/functions.php on line 154 ADDS - METARS form results

(1047 UTC 28 November 2021)
Data provider http://aviationweather.gov/metar/data/
 
METAR text: ENSB 281020Z 15022KT 9999 DRSN FEW020 M12/M20 Q1007 RMK WIND 1400FT 12025KT
Conditions at: ENSB (SVALBARD/LONGYEA, SJ) observed 1020 UTC 28 November 2021
Temperature: -12.0°C (10°F)
Dewpoint: -20.0°C (-4°F) [RH = 51%]
Pressure (altimeter): 29.73 inches Hg (1007.0 mb)
Winds: from the SSE (150 degrees) at 25 MPH (22 knots; 11.3 m/s)
Visibility: 6 or more miles (10+ km)
Ceiling: at least 12,000 feet AGL
Clouds: few clouds at 2000 feet AGL
Weather: DRSN  (low drifting snow)

METAR text: ENSB 280950Z 15022KT 9999 DRSN FEW020 M12/M20 Q1008 RMK WIND 1400FT 12023KT
Conditions at: ENSB (SVALBARD/LONGYEA, SJ) observed 0950 UTC 28 November 2021
Temperature: -12.0°C (10°F)
Dewpoint: -20.0°C (-4°F) [RH = 51%]
Pressure (altimeter): 29.76 inches Hg (1008.0 mb)
Winds: from the SSE (150 degrees) at 25 MPH (22 knots; 11.3 m/s)
Visibility: 6 or more miles (10+ km)
Ceiling: at least 12,000 feet AGL
Clouds: few clouds at 2000 feet AGL
Weather: DRSN  (low drifting snow)

Forecast for: ENSB (SVALBARD/LONGYEA, SJ)
Text: TAF ENSB 2806/2906 12020KT 9999 FEW012 SCT020
Forecast period: 0600 UTC 28 November 2021 to 0600 UTC 29 November 2021
Forecast type: FROM: standard forecast or significant change
Winds: from the ESE (120 degrees) at 23 MPH (20 knots; 10.3 m/s)
Visibility: 6 or more miles (10+ km)
Ceiling: at least 12,000 feet AGL
Clouds: few clouds at 1200 feet AGL
scattered clouds at 2000 feet AGL
Weather: no significant weather forecast for this period
Text: TEMPO 2806/2906 10028G38KT DRSN
Forecast period: 0600 UTC 28 November 2021 to 0600 UTC 29 November 2021
Forecast type: TEMPORARY: The following changes expected for less than half the time period
Winds: from the E (100 degrees) at 32 MPH (28 knots; 14.4 m/s)
gusting to 44 MPH (38 knots; 19.5 m/s)
Visibility: missing
Ceiling: unknown
Clouds: missing
Weather: DRSN  (low drifting snow)